createdAt,value
2022-11-13T00:00:27.396Z,3.82
2022-11-13T00:01:29.834Z,5.81
2022-11-13T00:02:32.250Z,4.67
2022-11-13T00:03:34.671Z,4.90
2022-11-13T00:04:37.133Z,3.75
2022-11-13T00:05:39.500Z,3.36
2022-11-13T00:06:42.194Z,3.63
2022-11-13T00:07:44.648Z,3.02
2022-11-13T00:08:47.105Z,4.73
2022-11-13T00:09:49.559Z,4.97
2022-11-13T00:10:52.218Z,2.91
2022-11-13T00:11:54.576Z,3.65
2022-11-13T00:12:57.071Z,3.03
2022-11-13T00:13:59.423Z,3.75
2022-11-13T00:15:01.789Z,4.20
2022-11-13T00:16:04.665Z,3.87
2022-11-13T00:17:07.127Z,3.87
2022-11-13T00:18:09.634Z,4.49
2022-11-13T00:19:12.085Z,3.56
2022-11-13T00:20:14.661Z,2.54
2022-11-13T00:21:17.057Z,3.93
2022-11-13T00:22:19.627Z,3.48
2022-11-13T00:23:22.081Z,4.05
2022-11-13T00:24:24.534Z,4.41
2022-11-13T00:25:26.912Z,4.87
2022-11-13T00:26:29.472Z,2.87
2022-11-13T00:27:31.928Z,3.33
2022-11-13T00:28:34.359Z,3.52
2022-11-13T00:29:36.712Z,3.07
2022-11-13T00:30:39.265Z,3.31
2022-11-13T00:31:41.630Z,3.79
2022-11-13T00:32:44.087Z,3.59
2022-11-13T00:34:09.074Z,3.73
2022-11-13T00:34:50.868Z,4.71
2022-11-13T00:35:53.229Z,2.89
2022-11-13T00:36:55.889Z,2.83
2022-11-13T00:37:58.250Z,2.62
2022-11-13T00:39:00.763Z,3.27
2022-11-13T00:40:03.228Z,4.15
2022-11-13T00:41:05.685Z,3.95
2022-11-13T00:42:08.038Z,4.18
2022-11-13T00:43:10.393Z,3.27
2022-11-13T00:44:12.784Z,4.32
2022-11-13T00:45:15.169Z,2.82
2022-11-13T00:46:17.925Z,2.64
2022-11-13T00:47:20.293Z,3.64
2022-11-13T00:48:22.646Z,3.15
2022-11-13T00:49:25.157Z,4.29
2022-11-13T00:50:27.829Z,4.30
2022-11-13T00:51:30.188Z,3.70
2022-11-13T00:52:32.550Z,4.18
2022-11-13T00:53:34.911Z,3.82
2022-11-13T00:54:37.301Z,4.33
2022-11-13T00:55:39.656Z,2.87
2022-11-13T00:56:42.616Z,3.41
2022-11-13T00:57:44.972Z,4.07
2022-11-13T00:58:47.331Z,3.75
2022-11-13T00:59:49.820Z,3.29
2022-11-13T01:00:52.378Z,3.72
2022-11-13T01:01:54.880Z,4.08
2022-11-13T01:02:57.401Z,3.69
2022-11-13T01:03:59.865Z,3.11
2022-11-13T01:05:02.586Z,2.59
2022-11-13T01:06:05.363Z,3.22
2022-11-13T01:07:07.872Z,3.24
2022-11-13T01:08:10.396Z,2.70
2022-11-13T01:09:12.759Z,3.36
2022-11-13T01:10:16.761Z,3.46
2022-11-13T01:11:19.218Z,2.99
2022-11-13T01:12:21.683Z,3.47
2022-11-13T01:13:24.144Z,4.10
2022-11-13T01:14:26.506Z,3.44
2022-11-13T01:15:28.991Z,2.81
2022-11-13T01:16:31.448Z,2.79
2022-11-13T01:17:33.908Z,3.03
2022-11-13T01:18:36.265Z,3.21
2022-11-13T01:19:38.628Z,2.91
2022-11-13T01:20:41.217Z,3.16
2022-11-13T01:21:43.673Z,2.96
2022-11-13T01:22:46.142Z,2.48
2022-11-13T01:23:48.500Z,2.83
2022-11-13T01:24:50.860Z,3.31
2022-11-13T01:25:53.268Z,2.83
2022-11-13T01:26:55.742Z,2.39
2022-11-13T01:27:58.198Z,3.67
2022-11-13T01:29:00.559Z,2.65
2022-11-13T01:30:03.132Z,3.36
2022-11-13T01:31:05.630Z,3.13
2022-11-13T01:32:08.104Z,2.59
2022-11-13T01:33:10.572Z,2.79
2022-11-13T01:34:13.032Z,2.73
2022-11-13T01:35:15.497Z,2.19
2022-11-13T01:36:18.209Z,2.45
2022-11-13T01:37:20.591Z,2.67
2022-11-13T01:38:23.071Z,2.60
2022-11-13T01:39:25.534Z,2.37
2022-11-13T01:40:28.121Z,3.14
2022-11-13T01:41:30.628Z,2.41
2022-11-13T01:42:33.096Z,2.35
2022-11-13T01:43:35.463Z,2.64
2022-11-13T01:44:37.823Z,2.95
2022-11-13T01:45:40.185Z,1.65
2022-11-13T01:46:42.770Z,1.98
2022-11-13T01:47:45.135Z,2.05
2022-11-13T01:48:47.590Z,2.14
2022-11-13T01:49:49.951Z,2.70
2022-11-13T01:50:52.513Z,2.69
2022-11-13T01:51:55.028Z,2.66
2022-11-13T01:52:57.504Z,2.51
2022-11-13T01:53:59.969Z,2.02
2022-11-13T01:55:02.436Z,2.31
2022-11-13T01:56:05.207Z,2.54
2022-11-13T01:57:07.716Z,2.38
2022-11-13T01:58:10.183Z,2.93
2022-11-13T01:59:12.634Z,1.71
2022-11-13T02:00:15.604Z,2.18
2022-11-13T02:01:18.115Z,2.51
2022-11-13T02:02:20.681Z,2.59
2022-11-13T02:03:23.138Z,2.10
2022-11-13T02:04:25.598Z,2.69
2022-11-13T02:05:28.212Z,2.03
2022-11-13T02:06:30.978Z,1.61
2022-11-13T02:07:33.372Z,2.17
2022-11-13T02:08:35.842Z,3.29
2022-11-13T02:09:38.206Z,2.53
2022-11-13T02:10:40.771Z,2.57
2022-11-13T02:11:43.230Z,2.08
2022-11-13T02:12:45.648Z,2.13
2022-11-13T02:13:48.008Z,2.09
2022-11-13T02:14:50.698Z,1.72
2022-11-13T02:15:53.062Z,1.96
2022-11-13T02:16:55.826Z,1.76
2022-11-13T02:17:58.226Z,1.65
2022-11-13T02:19:00.586Z,2.01
2022-11-13T02:20:03.247Z,1.94
2022-11-13T02:21:05.712Z,1.47
2022-11-13T02:22:08.181Z,1.53
2022-11-13T02:23:10.685Z,1.35
2022-11-13T02:24:13.052Z,2.29
2022-11-13T02:25:15.517Z,2.22
2022-11-13T02:26:18.690Z,1.96
2022-11-13T02:27:21.051Z,1.44
2022-11-13T02:28:23.451Z,2.02
2022-11-13T02:29:25.811Z,2.52
2022-11-13T02:30:28.377Z,2.12
2022-11-13T02:31:30.834Z,1.79
2022-11-13T02:32:33.295Z,1.55
2022-11-13T02:33:35.795Z,2.19
2022-11-13T02:34:38.158Z,2.21
2022-11-13T02:35:40.642Z,2.26
2022-11-13T02:36:43.493Z,1.63
2022-11-13T02:37:45.948Z,1.84
2022-11-13T02:38:48.348Z,1.31
2022-11-13T02:39:50.807Z,1.40
2022-11-13T02:40:53.470Z,1.97
2022-11-13T02:41:55.930Z,2.07
2022-11-13T02:42:58.290Z,2.52
2022-11-13T02:44:01.103Z,2.09
2022-11-13T02:45:03.571Z,1.52
2022-11-13T02:46:06.232Z,2.21
2022-11-13T02:47:08.594Z,1.60
2022-11-13T02:48:11.060Z,2.68
2022-11-13T02:49:13.557Z,2.79
2022-11-13T02:50:16.423Z,2.22
2022-11-13T02:51:18.883Z,2.67
2022-11-13T02:52:21.381Z,2.03
2022-11-13T02:53:23.812Z,2.47
2022-11-13T02:54:26.319Z,1.93
2022-11-13T02:55:28.844Z,2.01
2022-11-13T02:56:31.404Z,2.43
2022-11-13T02:57:33.868Z,2.08
2022-11-13T02:58:36.243Z,1.75
2022-11-13T02:59:38.657Z,1.42
2022-11-13T03:00:41.214Z,2.01
2022-11-13T03:01:43.606Z,2.07
2022-11-13T03:02:46.235Z,1.39
2022-11-13T03:03:57.580Z,1.76
2022-11-13T03:05:57.295Z,1.78
2022-11-13T03:06:59.998Z,1.37
2022-11-13T03:08:02.418Z,1.55
2022-11-13T03:09:04.875Z,1.45
2022-11-13T03:10:07.828Z,1.57
2022-11-13T03:11:10.192Z,1.94
2022-11-13T03:12:12.652Z,1.60
2022-11-13T03:13:15.116Z,1.20
2022-11-13T03:14:18.074Z,1.82
2022-11-13T03:15:20.471Z,1.88
2022-11-13T03:16:23.022Z,1.35
2022-11-13T03:17:25.410Z,1.49
2022-11-13T03:18:28.218Z,1.47
2022-11-13T03:19:31.135Z,1.47
2022-11-13T03:20:33.720Z,1.06
2022-11-13T03:21:36.077Z,1.19
2022-11-13T03:22:38.527Z,1.73
2022-11-13T03:23:40.884Z,1.67
2022-11-13T03:24:43.344Z,1.19
2022-11-13T03:25:45.835Z,1.45
2022-11-13T03:26:48.477Z,1.95
2022-11-13T03:27:50.837Z,1.38
2022-11-13T03:28:53.189Z,1.35
2022-11-13T03:29:55.646Z,1.29
2022-11-13T03:30:58.346Z,1.44
2022-11-13T03:32:00.806Z,1.38
2022-11-13T03:33:03.243Z,1.79
2022-11-13T03:34:05.602Z,1.80
2022-11-13T03:35:07.956Z,2.13
2022-11-13T03:36:10.750Z,1.84
2022-11-13T03:37:13.199Z,1.75
2022-11-13T03:38:15.572Z,1.26
2022-11-13T03:39:18.051Z,1.33
2022-11-13T03:40:20.721Z,1.53
2022-11-13T03:41:23.116Z,1.48
2022-11-13T03:42:25.469Z,1.26
2022-11-13T03:43:27.830Z,2.14
2022-11-13T03:44:30.286Z,1.63
2022-11-13T03:45:32.674Z,1.61
2022-11-13T03:46:35.359Z,2.07
2022-11-13T03:47:37.807Z,1.62
2022-11-13T03:48:40.169Z,1.20
2022-11-13T03:49:42.627Z,1.60
2022-11-13T03:50:45.734Z,1.25
2022-11-13T03:51:48.294Z,1.48
2022-11-13T03:52:50.753Z,1.49
2022-11-13T03:53:53.106Z,1.05
2022-11-13T03:54:55.465Z,1.75
2022-11-13T03:55:57.924Z,1.26
2022-11-13T03:57:00.423Z,1.24
2022-11-13T03:58:02.887Z,1.41
2022-11-13T03:59:05.334Z,1.39
2022-11-13T04:00:08.094Z,1.43
2022-11-13T04:01:10.444Z,1.20
2022-11-13T04:02:12.891Z,0.99
2022-11-13T04:03:15.245Z,1.03
2022-11-13T04:04:17.697Z,0.71
2022-11-13T04:05:22.741Z,1.28
2022-11-13T04:06:24.441Z,1.05
2022-11-13T04:07:26.936Z,1.05
2022-11-13T04:08:29.804Z,0.89
2022-11-13T04:09:32.443Z,0.89
2022-11-13T04:10:35.097Z,1.17
2022-11-13T04:11:37.472Z,0.97
2022-11-13T04:12:40.299Z,0.67
2022-11-13T04:13:42.678Z,1.93
2022-11-13T04:14:45.041Z,1.10
2022-11-13T04:15:47.493Z,0.63
2022-11-13T04:16:50.144Z,0.66
2022-11-13T04:17:52.581Z,0.85
2022-11-13T04:18:54.939Z,0.81
2022-11-13T04:19:57.397Z,0.85
2022-11-13T04:20:59.952Z,0.80
2022-11-13T04:22:02.321Z,1.17
2022-11-13T04:23:04.801Z,0.89
2022-11-13T04:24:07.265Z,0.62
2022-11-13T04:25:09.719Z,0.83
2022-11-13T04:26:12.691Z,1.14
2022-11-13T04:27:15.163Z,0.75
2022-11-13T04:28:17.664Z,1.09
2022-11-13T04:29:20.201Z,0.82
2022-11-13T04:30:22.780Z,1.05
2022-11-13T04:31:25.238Z,0.87
2022-11-13T04:32:27.625Z,1.30
2022-11-13T04:33:30.103Z,1.91
2022-11-13T04:34:32.461Z,0.79
2022-11-13T04:35:34.915Z,0.74
2022-11-13T04:36:37.571Z,0.91
2022-11-13T04:37:39.962Z,0.78
2022-11-13T04:38:42.356Z,1.01
2022-11-13T04:39:44.811Z,0.91
2022-11-13T04:40:47.275Z,1.18
2022-11-13T04:41:55.051Z,1.46
2022-11-13T04:42:54.118Z,0.94
2022-11-13T04:43:56.507Z,0.95
2022-11-13T04:44:58.870Z,1.03
2022-11-13T04:46:01.228Z,1.09
2022-11-13T04:47:03.685Z,1.08
2022-11-13T04:48:06.046Z,0.69
2022-11-13T04:49:08.522Z,1.30
2022-11-13T04:50:11.593Z,0.90
2022-11-13T04:51:14.041Z,0.74
2022-11-13T04:52:16.402Z,1.53
2022-11-13T04:53:18.863Z,1.41
2022-11-13T04:54:27.374Z,0.93
2022-11-13T04:55:25.516Z,1.31
2022-11-13T04:56:28.000Z,1.23
2022-11-13T04:57:30.452Z,1.09
2022-11-13T04:58:32.803Z,0.71
2022-11-13T04:59:35.206Z,1.19
2022-11-13T05:00:37.760Z,0.76
2022-11-13T05:01:40.240Z,1.19
2022-11-13T05:02:42.678Z,1.23
2022-11-13T05:03:45.148Z,1.39
2022-11-13T05:04:47.818Z,1.43
2022-11-13T05:05:50.172Z,1.52
2022-11-13T05:06:52.847Z,1.27
2022-11-13T05:07:55.489Z,1.29
2022-11-13T05:08:57.950Z,1.03
2022-11-13T05:10:00.358Z,1.07
2022-11-13T05:11:02.914Z,0.98
2022-11-13T05:12:05.409Z,1.21
2022-11-13T05:13:07.855Z,1.38
2022-11-13T05:14:10.213Z,1.74
2022-11-13T05:15:12.605Z,1.68
2022-11-13T05:16:15.567Z,2.02
2022-11-13T05:17:18.039Z,0.96
2022-11-13T05:18:20.494Z,0.78
2022-11-13T05:19:22.854Z,0.87
2022-11-13T05:20:25.648Z,1.13
2022-11-13T05:21:28.003Z,1.05
2022-11-13T05:22:30.357Z,1.14
2022-11-13T05:23:32.817Z,0.84
2022-11-13T05:24:35.182Z,1.27
2022-11-13T05:25:37.583Z,1.09
2022-11-13T05:26:40.145Z,1.66
2022-11-13T05:27:42.516Z,2.35
2022-11-13T05:28:44.971Z,1.33
2022-11-13T05:29:47.469Z,1.91
2022-11-13T05:30:50.238Z,1.69
2022-11-13T05:31:52.703Z,1.29
2022-11-13T05:32:55.160Z,1.09
2022-11-13T05:34:01.268Z,0.97
2022-11-13T05:35:01.908Z,0.72
2022-11-13T05:36:04.510Z,1.41
2022-11-13T05:37:06.868Z,1.67
2022-11-13T05:38:09.356Z,1.26
2022-11-13T05:39:11.719Z,1.25
2022-11-13T05:40:14.897Z,1.20
2022-11-13T05:41:17.295Z,1.19
2022-11-13T05:42:19.659Z,1.03
2022-11-13T05:43:22.136Z,1.47
2022-11-13T05:44:24.599Z,1.15
2022-11-13T05:45:26.958Z,1.08
2022-11-13T05:46:29.654Z,1.03
2022-11-13T05:47:32.017Z,0.95
2022-11-13T05:48:34.477Z,1.19
2022-11-13T05:49:36.944Z,1.06
2022-11-13T05:50:39.705Z,2.13
2022-11-13T05:51:42.216Z,0.86
2022-11-13T05:52:44.702Z,1.57
2022-11-13T05:53:47.157Z,1.29
2022-11-13T05:54:49.519Z,1.25
2022-11-13T05:55:51.879Z,1.07
2022-11-13T05:56:54.525Z,1.51
2022-11-13T05:57:56.885Z,1.17
2022-11-13T05:58:59.247Z,1.52
2022-11-13T06:00:01.712Z,2.24
2022-11-13T06:01:04.290Z,1.49
2022-11-13T06:02:06.860Z,1.51
2022-11-13T06:03:09.280Z,1.05
2022-11-13T06:04:11.747Z,1.36
2022-11-13T06:05:14.209Z,1.05
2022-11-13T06:06:16.983Z,1.52
2022-11-13T06:07:19.603Z,1.37
2022-11-13T06:08:22.306Z,1.04
2022-11-13T06:09:24.768Z,1.17
2022-11-13T06:10:27.363Z,0.86
2022-11-13T06:11:29.790Z,1.36
2022-11-13T06:12:32.319Z,1.45
2022-11-13T06:13:34.788Z,1.47
2022-11-13T06:14:37.256Z,0.92
2022-11-13T06:15:39.717Z,1.20
2022-11-13T06:16:42.379Z,1.23
2022-11-13T06:17:44.880Z,1.34
2022-11-13T06:18:47.259Z,1.05
2022-11-13T06:19:49.712Z,1.63
2022-11-13T06:20:52.176Z,1.49
2022-11-13T06:21:54.542Z,1.37
2022-11-13T06:22:57.039Z,2.10
2022-11-13T06:23:59.407Z,0.97
2022-11-13T06:25:01.867Z,1.28
2022-11-13T06:26:04.327Z,1.16
2022-11-13T06:27:06.688Z,1.39
2022-11-13T06:28:09.098Z,1.51
2022-11-13T06:29:11.584Z,3.16
2022-11-13T06:30:14.365Z,2.27
2022-11-13T06:31:16.827Z,2.95
2022-11-13T06:32:19.286Z,2.43
2022-11-13T06:33:21.792Z,2.39
2022-11-13T06:34:24.157Z,1.20
2022-11-13T06:35:26.611Z,1.17
2022-11-13T06:36:29.476Z,1.25
2022-11-13T06:37:34.701Z,1.65
2022-11-13T06:38:36.210Z,2.01
2022-11-13T06:39:39.020Z,1.68
2022-11-13T06:40:41.684Z,1.99
2022-11-13T06:41:44.143Z,2.49
2022-11-13T06:42:46.606Z,1.23
2022-11-13T06:43:49.100Z,1.12
2022-11-13T06:44:51.533Z,1.32
2022-11-13T06:45:53.966Z,1.28
2022-11-13T06:46:56.739Z,1.45
2022-11-13T06:47:59.189Z,1.20
2022-11-13T06:49:01.695Z,1.59
2022-11-13T06:50:04.484Z,1.24
2022-11-13T06:51:06.844Z,1.36
2022-11-13T06:52:09.311Z,1.51
2022-11-13T06:53:11.776Z,1.18
2022-11-13T06:54:14.272Z,1.95
2022-11-13T06:55:16.753Z,1.56
2022-11-13T06:56:19.520Z,2.41
2022-11-13T06:57:21.986Z,2.31
2022-11-13T06:58:24.447Z,1.33
2022-11-13T06:59:26.868Z,1.58
2022-11-13T07:00:35.273Z,2.41
2022-11-13T07:01:34.017Z,1.65
2022-11-13T07:02:36.885Z,1.06
2022-11-13T07:03:39.474Z,1.43
2022-11-13T07:04:42.175Z,1.67
2022-11-13T07:05:44.640Z,1.71
2022-11-13T07:06:47.580Z,1.55
2022-11-13T07:07:50.165Z,1.74
2022-11-13T07:08:52.625Z,1.49
2022-11-13T07:09:55.229Z,1.60
2022-11-13T07:10:57.792Z,1.61
2022-11-13T07:12:00.256Z,1.58
2022-11-13T07:13:02.619Z,1.92
2022-11-13T07:14:04.976Z,0.95
2022-11-13T07:15:07.388Z,1.35
2022-11-13T07:16:17.057Z,1.39
2022-11-13T07:17:14.908Z,1.58
2022-11-13T07:18:22.884Z,1.73
2022-11-13T07:19:21.638Z,2.28
2022-11-13T07:20:24.056Z,0.96
2022-11-13T07:21:26.544Z,2.08
2022-11-13T07:22:29.907Z,1.34
2022-11-13T07:23:32.370Z,1.44
2022-11-13T07:24:34.837Z,1.27
2022-11-13T07:25:37.315Z,1.21
2022-11-13T07:26:39.992Z,1.31
2022-11-13T07:27:42.560Z,1.96
2022-11-13T07:28:44.926Z,1.31
2022-11-13T07:29:47.384Z,1.29
2022-11-13T07:30:50.076Z,1.95
2022-11-13T07:31:52.483Z,1.59
2022-11-13T07:32:54.912Z,1.61
2022-11-13T07:33:57.395Z,1.29
2022-11-13T07:34:59.992Z,1.15
2022-11-13T07:36:02.561Z,1.79
2022-11-13T07:37:05.020Z,1.83
2022-11-13T07:38:07.664Z,2.05
2022-11-13T07:39:10.151Z,1.37
2022-11-13T07:40:14.545Z,1.61
2022-11-13T07:41:17.023Z,1.73
2022-11-13T07:42:19.385Z,1.48
2022-11-13T07:43:21.922Z,1.01
2022-11-13T07:44:47.861Z,0.96
2022-11-13T07:45:28.967Z,0.82
2022-11-13T07:46:32.125Z,1.33
2022-11-13T07:47:34.476Z,0.99
2022-11-13T07:48:36.838Z,1.35
2022-11-13T07:49:39.203Z,1.56
2022-11-13T07:50:41.769Z,1.70
2022-11-13T07:51:44.271Z,1.37
2022-11-13T07:52:46.735Z,1.50
2022-11-13T07:53:49.090Z,1.54
2022-11-13T07:54:51.517Z,1.35
2022-11-13T07:55:53.943Z,1.22
2022-11-13T07:56:56.680Z,1.30
2022-11-13T07:57:59.136Z,1.42
2022-11-13T07:59:01.540Z,1.34
2022-11-13T08:00:04.202Z,1.20
2022-11-13T08:01:06.694Z,1.25
2022-11-13T08:02:09.297Z,1.39
2022-11-13T08:03:12.254Z,1.51
2022-11-13T08:04:14.614Z,1.69
2022-11-13T08:05:17.298Z,2.05
2022-11-13T08:06:20.274Z,1.66
2022-11-13T08:07:22.733Z,1.28
2022-11-13T08:08:25.351Z,1.80
2022-11-13T08:09:27.894Z,2.35
2022-11-13T08:10:30.554Z,2.29
2022-11-13T08:11:33.007Z,3.08
2022-11-13T08:12:35.484Z,1.60
2022-11-13T08:13:37.880Z,1.75
2022-11-13T08:15:13.206Z,3.21
2022-11-13T08:16:14.705Z,3.21
2022-11-13T08:17:17.225Z,3.27
2022-11-13T08:18:19.718Z,4.79
2022-11-13T08:19:22.185Z,6.10
2022-11-13T08:20:24.763Z,5.61
2022-11-13T08:21:27.123Z,3.25
2022-11-13T08:22:29.635Z,4.31
2022-11-13T08:23:32.589Z,2.87
2022-11-13T08:24:35.052Z,2.12
2022-11-13T08:25:37.515Z,2.71
2022-11-13T08:26:40.073Z,1.23
2022-11-13T08:27:42.439Z,1.22
2022-11-13T08:28:44.846Z,1.45
2022-11-13T08:29:47.208Z,1.27
2022-11-13T08:30:49.878Z,0.93
2022-11-13T08:31:52.257Z,1.20
2022-11-13T08:32:54.727Z,1.72
2022-11-13T08:33:57.167Z,1.27
2022-11-13T08:34:59.641Z,2.00
2022-11-13T08:36:02.001Z,0.95
2022-11-13T08:37:04.467Z,0.80
2022-11-13T08:38:07.339Z,1.26
2022-11-13T08:39:09.847Z,1.12
2022-11-13T08:40:12.409Z,0.84
2022-11-13T08:41:14.876Z,0.87
2022-11-13T08:42:17.732Z,0.64
2022-11-13T08:43:20.190Z,0.83
2022-11-13T08:44:22.583Z,1.15
2022-11-13T08:45:24.958Z,1.27
2022-11-13T08:46:27.729Z,1.47
2022-11-13T08:47:30.101Z,1.41
2022-11-13T08:48:32.621Z,1.58
2022-11-13T08:49:35.129Z,1.20
2022-11-13T08:50:37.835Z,1.42
2022-11-13T08:51:40.340Z,1.69
2022-11-13T08:52:42.734Z,2.68
2022-11-13T08:53:45.180Z,1.71
2022-11-13T08:54:47.674Z,2.50
2022-11-13T08:55:50.067Z,1.53
2022-11-13T08:56:56.139Z,1.37
2022-11-13T08:57:57.230Z,1.26
2022-11-13T08:58:59.786Z,1.31
2022-11-13T09:00:02.508Z,1.45
2022-11-13T09:01:04.947Z,1.17
2022-11-13T09:02:07.409Z,1.39
2022-11-13T09:03:09.883Z,1.47
2022-11-13T09:04:12.398Z,0.53
2022-11-13T09:05:14.847Z,1.33
2022-11-13T09:06:17.916Z,2.32
2022-11-13T09:07:24.684Z,2.73
2022-11-13T09:08:24.720Z,3.08
2022-11-13T09:09:27.158Z,1.59
2022-11-13T09:10:30.259Z,0.98
2022-11-13T09:11:32.756Z,1.37
2022-11-13T09:12:35.217Z,1.36
2022-11-13T09:13:43.905Z,1.78
2022-11-13T09:14:41.875Z,1.21
2022-11-13T09:15:44.275Z,0.96
2022-11-13T09:16:47.052Z,1.64
2022-11-13T09:17:49.514Z,1.05
2022-11-13T09:18:52.003Z,0.91
2022-11-13T09:19:54.468Z,1.04
2022-11-13T09:20:57.156Z,1.81
2022-11-13T09:21:59.614Z,1.91
2022-11-13T09:23:01.983Z,1.93
2022-11-13T09:24:04.446Z,1.39
2022-11-13T09:25:06.908Z,1.19
2022-11-13T09:26:09.865Z,1.30
2022-11-13T09:27:12.382Z,2.10
2022-11-13T09:28:14.863Z,1.98
2022-11-13T09:29:17.331Z,3.27
2022-11-13T09:30:19.908Z,2.36
2022-11-13T09:31:22.432Z,1.32
2022-11-13T09:32:24.797Z,2.04
2022-11-13T09:33:27.184Z,1.15
2022-11-13T09:34:29.647Z,1.00
2022-11-13T09:35:32.103Z,1.63
2022-11-13T09:36:34.723Z,3.38
2022-11-13T09:37:37.086Z,2.31
2022-11-13T09:38:39.583Z,2.86
2022-11-13T09:39:42.042Z,3.86
2022-11-13T09:40:45.372Z,4.18
2022-11-13T09:41:48.378Z,3.20
2022-11-13T09:42:50.898Z,2.33
2022-11-13T09:43:59.329Z,2.03
2022-11-13T09:44:57.626Z,5.99
2022-11-13T09:46:00.090Z,2.49
2022-11-13T09:47:02.631Z,1.82
2022-11-13T09:48:04.997Z,2.16
2022-11-13T09:49:07.866Z,1.54
2022-11-13T09:50:11.855Z,1.66
2022-11-13T09:51:14.235Z,2.11
2022-11-13T09:52:16.869Z,2.23
2022-11-13T09:53:19.231Z,2.42
2022-11-13T09:54:21.608Z,2.43
2022-11-13T09:55:24.074Z,1.53
2022-11-13T09:56:26.640Z,1.59
2022-11-13T09:57:29.147Z,1.07
2022-11-13T09:58:31.952Z,2.66
2022-11-13T09:59:34.677Z,2.14
2022-11-13T10:00:37.245Z,2.41
2022-11-13T10:01:40.320Z,2.60
2022-11-13T10:02:42.853Z,2.17
2022-11-13T10:04:00.608Z,2.83
2022-11-13T10:04:49.607Z,1.51
2022-11-13T10:05:51.970Z,1.33
2022-11-13T10:06:54.589Z,1.89
2022-11-13T10:07:57.257Z,2.11
2022-11-13T10:08:59.712Z,2.51
2022-11-13T10:10:02.093Z,2.71
2022-11-13T10:11:04.570Z,3.70
2022-11-13T10:12:07.033Z,2.29
2022-11-13T10:13:09.453Z,2.26
2022-11-13T10:14:12.709Z,2.81
2022-11-13T10:15:15.225Z,2.51
2022-11-13T10:16:18.317Z,3.51
2022-11-13T10:17:20.678Z,3.35
2022-11-13T10:18:23.204Z,4.12
2022-11-13T10:19:25.704Z,5.44
2022-11-13T10:20:28.351Z,3.96
2022-11-13T10:21:30.787Z,2.63
2022-11-13T10:22:34.400Z,2.17
2022-11-13T10:23:37.304Z,1.84
2022-11-13T10:24:39.788Z,1.39
2022-11-13T10:25:42.258Z,1.53
2022-11-13T10:26:45.319Z,1.37
2022-11-13T10:27:47.938Z,1.81
2022-11-13T10:28:51.640Z,1.60
2022-11-13T10:29:54.486Z,1.52
2022-11-13T10:30:57.158Z,2.05
2022-11-13T10:31:59.709Z,2.05
2022-11-13T10:33:04.142Z,3.47
2022-11-13T10:34:06.512Z,2.34
2022-11-13T10:35:09.049Z,2.37
2022-11-13T10:36:11.746Z,2.07
2022-11-13T10:37:14.234Z,1.83
2022-11-13T10:38:17.857Z,1.31
2022-11-13T10:39:20.400Z,1.78
2022-11-13T10:40:22.994Z,2.71
2022-11-13T10:41:25.492Z,2.67
2022-11-13T10:42:27.953Z,2.43
2022-11-13T10:43:30.717Z,2.53
2022-11-13T10:44:33.480Z,1.36
2022-11-13T10:45:35.936Z,2.37
2022-11-13T10:46:38.411Z,2.13
2022-11-13T10:48:03.239Z,2.25
2022-11-13T10:48:45.190Z,2.40
2022-11-13T10:49:47.857Z,3.44
2022-11-13T10:50:50.651Z,4.67
2022-11-13T10:51:53.138Z,5.25
2022-11-13T10:52:55.583Z,4.64
2022-11-13T10:53:57.929Z,4.07
2022-11-13T10:55:00.410Z,3.64
2022-11-13T10:56:02.757Z,3.39
2022-11-13T10:57:05.119Z,4.68
2022-11-13T10:58:07.580Z,3.87
2022-11-13T10:59:10.040Z,3.32
2022-11-13T11:00:13.422Z,2.24
2022-11-13T11:01:15.831Z,3.33
2022-11-13T11:02:18.445Z,1.44
2022-11-13T11:03:20.809Z,1.46
2022-11-13T11:04:23.270Z,1.64
2022-11-13T11:05:25.665Z,1.54
2022-11-13T11:06:48.720Z,2.17
2022-11-13T11:07:32.555Z,2.35
2022-11-13T11:08:34.981Z,2.86
2022-11-13T11:09:37.345Z,2.60
2022-11-13T11:10:39.842Z,1.89
2022-11-13T11:11:42.300Z,2.71
2022-11-13T11:12:44.660Z,3.93
2022-11-13T11:13:47.018Z,4.13
2022-11-13T11:14:49.588Z,3.51
2022-11-13T11:15:52.079Z,3.37
2022-11-13T11:16:54.636Z,2.33
2022-11-13T11:17:56.993Z,2.93
2022-11-13T11:18:59.344Z,2.94
2022-11-13T11:20:01.702Z,3.27
2022-11-13T11:21:04.127Z,3.67
2022-11-13T11:22:06.494Z,2.08
2022-11-13T11:23:08.947Z,1.80
2022-11-13T11:24:11.302Z,1.07
2022-11-13T11:25:13.671Z,0.81
2022-11-13T11:26:16.179Z,0.87
2022-11-13T11:27:18.539Z,1.05
2022-11-13T11:28:20.905Z,1.99
2022-11-13T11:29:23.368Z,2.87
2022-11-13T11:30:25.934Z,2.32
2022-11-13T11:31:28.360Z,1.75
2022-11-13T11:32:30.821Z,2.23
2022-11-13T11:33:33.274Z,2.34
2022-11-13T11:34:35.631Z,3.49
2022-11-13T11:35:38.091Z,3.59
2022-11-13T11:36:40.688Z,3.23
2022-11-13T11:37:43.056Z,2.17
2022-11-13T11:38:45.521Z,1.11
2022-11-13T11:39:47.974Z,1.84
2022-11-13T11:40:50.439Z,2.78
2022-11-13T11:41:52.842Z,2.23
2022-11-13T11:42:55.209Z,1.71
2022-11-13T11:43:57.663Z,1.58
2022-11-13T11:45:00.170Z,2.89
2022-11-13T11:46:02.934Z,1.72
2022-11-13T11:47:05.434Z,1.93
2022-11-13T11:48:07.888Z,2.89
2022-11-13T11:49:10.251Z,3.97
2022-11-13T11:50:13.933Z,2.80
2022-11-13T11:51:16.392Z,1.75
2022-11-13T11:52:18.781Z,2.89
2022-11-13T11:53:21.232Z,1.53
2022-11-13T11:54:23.595Z,1.82
2022-11-13T11:55:26.055Z,2.67
2022-11-13T11:56:28.612Z,2.44
2022-11-13T11:57:31.108Z,2.85
2022-11-13T11:58:33.467Z,2.65
2022-11-13T11:59:35.966Z,2.97
2022-11-13T12:00:38.735Z,2.06
2022-11-13T12:01:41.095Z,1.57
2022-11-13T12:02:43.498Z,1.95
2022-11-13T12:03:45.948Z,1.91
2022-11-13T12:04:48.332Z,1.03
2022-11-13T12:05:50.758Z,3.09
2022-11-13T12:06:53.546Z,1.54
2022-11-13T12:07:56.014Z,1.27
2022-11-13T12:08:58.400Z,1.88
2022-11-13T12:10:00.759Z,2.30
2022-11-13T12:11:03.114Z,2.87
2022-11-13T12:12:05.476Z,2.75
2022-11-13T12:13:07.898Z,2.69
2022-11-13T12:14:10.257Z,1.37
2022-11-13T12:15:12.623Z,1.15
2022-11-13T12:16:15.377Z,1.34
2022-11-13T12:17:17.738Z,1.83
2022-11-13T12:18:20.144Z,0.99
2022-11-13T12:19:22.600Z,1.28
2022-11-13T12:20:25.154Z,0.98
2022-11-13T12:21:27.515Z,1.07
2022-11-13T12:22:31.119Z,1.46
2022-11-13T12:23:33.794Z,1.06
2022-11-13T12:24:36.435Z,1.47
2022-11-13T12:25:38.853Z,1.28
2022-11-13T12:26:41.412Z,2.15
2022-11-13T12:27:43.945Z,1.81
2022-11-13T12:28:46.415Z,1.93
2022-11-13T12:29:48.769Z,1.59
2022-11-13T12:30:51.228Z,1.99
2022-11-13T12:31:53.590Z,2.39
2022-11-13T12:32:56.067Z,2.23
2022-11-13T12:34:01.433Z,1.15
2022-11-13T12:35:02.728Z,1.27
2022-11-13T12:36:05.511Z,0.99
2022-11-13T12:37:07.964Z,0.75
2022-11-13T12:38:10.423Z,2.39
2022-11-13T12:39:12.808Z,2.21
2022-11-13T12:40:15.292Z,3.98
2022-11-13T12:41:17.694Z,1.99
2022-11-13T12:42:20.191Z,2.95
2022-11-13T12:43:22.662Z,1.68
2022-11-13T12:44:25.195Z,1.77
2022-11-13T12:45:27.623Z,1.65
2022-11-13T12:46:30.281Z,1.57
2022-11-13T12:47:32.757Z,1.69
2022-11-13T12:48:35.219Z,0.98
2022-11-13T12:49:37.778Z,0.83
2022-11-13T12:50:40.339Z,1.14
2022-11-13T12:51:42.832Z,2.13
2022-11-13T12:52:45.190Z,2.14
2022-11-13T12:53:47.656Z,1.83
2022-11-13T12:54:50.080Z,1.85
2022-11-13T12:55:52.564Z,2.19
2022-11-13T12:56:55.120Z,1.75
2022-11-13T12:57:57.592Z,2.59
2022-11-13T12:59:24.225Z,3.32
2022-11-13T13:00:04.568Z,2.74
2022-11-13T13:01:06.948Z,1.72
2022-11-13T13:02:09.397Z,2.10
2022-11-13T13:03:11.759Z,2.64
2022-11-13T13:04:14.222Z,3.43
2022-11-13T13:05:16.628Z,3.20
2022-11-13T13:06:19.835Z,3.44
2022-11-13T13:07:22.414Z,4.87
2022-11-13T13:08:24.901Z,2.55
2022-11-13T13:09:27.329Z,2.07
2022-11-13T13:10:29.920Z,1.95
2022-11-13T13:11:32.319Z,6.28
2022-11-13T13:12:34.699Z,10.07
2022-11-13T13:13:37.192Z,7.34
2022-11-13T13:14:39.652Z,29.03
2022-11-13T13:15:42.308Z,16.65
2022-11-13T13:16:44.935Z,12.09
2022-11-13T13:17:47.401Z,7.27
2022-11-13T13:18:49.888Z,6.15
2022-11-13T13:19:52.351Z,6.44
2022-11-13T13:20:55.068Z,8.39
2022-11-13T13:21:57.531Z,7.57
2022-11-13T13:22:59.990Z,8.51
2022-11-13T13:24:02.355Z,6.15
2022-11-13T13:25:04.820Z,5.39
2022-11-13T13:26:07.850Z,7.65
2022-11-13T13:27:10.309Z,7.91
2022-11-13T13:28:12.781Z,7.41
2022-11-13T13:29:15.249Z,3.83
2022-11-13T13:30:17.815Z,4.73
2022-11-13T13:31:20.323Z,3.99
2022-11-13T13:32:22.698Z,6.90
2022-11-13T13:33:25.191Z,5.80
2022-11-13T13:34:32.350Z,5.53
2022-11-13T13:35:31.845Z,6.40
2022-11-13T13:36:34.582Z,6.43
2022-11-13T13:37:37.048Z,5.30
2022-11-13T13:38:39.415Z,6.41
2022-11-13T13:39:41.875Z,5.47
2022-11-13T13:40:44.558Z,4.18
2022-11-13T13:41:47.060Z,5.75
2022-11-13T13:42:49.531Z,7.49
2022-11-13T13:43:51.996Z,8.68
2022-11-13T13:44:54.358Z,9.30
2022-11-13T13:45:56.821Z,9.44
2022-11-13T13:46:59.462Z,10.96
2022-11-13T13:48:01.830Z,10.89
2022-11-13T13:49:04.318Z,8.32
2022-11-13T13:50:07.327Z,7.21
2022-11-13T13:51:09.791Z,5.95
2022-11-13T13:52:12.314Z,4.31
2022-11-13T13:53:14.780Z,5.57
2022-11-13T13:54:17.260Z,6.29